sensor_id;sensor_type;location;lat;lon;timestamp;pressure;altitude;pressure_sealevel;temperature;humidity
65151;BME280;51918;51.856;0.150;2023-04-28T00:01:01;99972.91;;;9.38;100.00
65151;BME280;51918;51.856;0.150;2023-04-28T00:06:01;99969.56;;;9.37;100.00
65151;BME280;51918;51.856;0.150;2023-04-28T00:11:02;99964.13;;;9.32;100.00
65151;BME280;51918;51.856;0.150;2023-04-28T00:16:05;99963.72;;;9.52;100.00
65151;BME280;51918;51.856;0.150;2023-04-28T00:21:05;99943.38;;;9.42;100.00
65151;BME280;51918;51.856;0.150;2023-04-28T00:26:06;99934.59;;;9.36;100.00
65151;BME280;51918;51.856;0.150;2023-04-28T00:31:11;99941.44;;;9.44;100.00
65151;BME280;51918;51.856;0.150;2023-04-28T00:36:11;99931.00;;;9.45;100.00
65151;BME280;51918;51.856;0.150;2023-04-28T00:41:12;99930.47;;;9.58;100.00
65151;BME280;51918;51.856;0.150;2023-04-28T00:46:20;99921.97;;;9.58;100.00
65151;BME280;51918;51.856;0.150;2023-04-28T00:51:20;99902.50;;;9.63;100.00
65151;BME280;51918;51.856;0.150;2023-04-28T00:56:21;99896.09;;;9.82;100.00
65151;BME280;51918;51.856;0.150;2023-04-28T01:01:23;99890.22;;;9.74;100.00
65151;BME280;51918;51.856;0.150;2023-04-28T01:06:24;99896.56;;;9.63;100.00
65151;BME280;51918;51.856;0.150;2023-04-28T01:11:26;99896.97;;;9.75;100.00
65151;BME280;51918;51.856;0.150;2023-04-28T01:16:28;99896.28;;;9.58;100.00
65151;BME280;51918;51.856;0.150;2023-04-28T01:21:30;99885.34;;;9.64;100.00
65151;BME280;51918;51.856;0.150;2023-04-28T01:26:32;99889.44;;;9.73;100.00
65151;BME280;51918;51.856;0.150;2023-04-28T01:31:32;99888.19;;;9.69;100.00
65151;BME280;51918;51.856;0.150;2023-04-28T01:36:33;99882.06;;;9.70;100.00
65151;BME280;51918;51.856;0.150;2023-04-28T01:41:35;99878.69;;;9.69;100.00
65151;BME280;51918;51.856;0.150;2023-04-28T01:46:36;99877.00;;;9.62;100.00
65151;BME280;51918;51.856;0.150;2023-04-28T01:51:36;99877.69;;;9.79;100.00
65151;BME280;51918;51.856;0.150;2023-04-28T01:56:38;99871.81;;;9.93;100.00
65151;BME280;51918;51.856;0.150;2023-04-28T02:01:39;99859.44;;;9.97;100.00
65151;BME280;51918;51.856;0.150;2023-04-28T02:06:39;99861.13;;;10.04;100.00
65151;BME280;51918;51.856;0.150;2023-04-28T02:11:41;99861.34;;;10.18;100.00
65151;BME280;51918;51.856;0.150;2023-04-28T02:16:42;99864.63;;;10.26;100.00
65151;BME280;51918;51.856;0.150;2023-04-28T02:21:42;99862.50;;;10.45;100.00
65151;BME280;51918;51.856;0.150;2023-04-28T02:26:44;99856.09;;;10.41;100.00
65151;BME280;51918;51.856;0.150;2023-04-28T02:31:45;99860.53;;;10.47;100.00
65151;BME280;51918;51.856;0.150;2023-04-28T02:36:46;99861.63;;;10.38;100.00
65151;BME280;51918;51.856;0.150;2023-04-28T02:41:48;99853.91;;;10.38;100.00
65151;BME280;51918;51.856;0.150;2023-04-28T02:46:48;99850.88;;;10.34;100.00
65151;BME280;51918;51.856;0.150;2023-04-28T02:51:49;99853.53;;;10.41;100.00
65151;BME280;51918;51.856;0.150;2023-04-28T02:56:51;99859.13;;;10.44;100.00
65151;BME280;51918;51.856;0.150;2023-04-28T03:01:51;99857.63;;;10.50;100.00
65151;BME280;51918;51.856;0.150;2023-04-28T03:06:52;99859.13;;;10.59;100.00
65151;BME280;51918;51.856;0.150;2023-04-28T03:11:54;99855.03;;;10.80;100.00
65151;BME280;51918;51.856;0.150;2023-04-28T03:16:55;99852.97;;;10.90;100.00
65151;BME280;51918;51.856;0.150;2023-04-28T03:21:55;99853.25;;;10.95;100.00
65151;BME280;51918;51.856;0.150;2023-04-28T03:26:57;99843.81;;;11.02;100.00
65151;BME280;51918;51.856;0.150;2023-04-28T03:31:58;99848.25;;;11.08;99.97
65151;BME280;51918;51.856;0.150;2023-04-28T03:36:58;99842.38;;;11.15;99.93
65151;BME280;51918;51.856;0.150;2023-04-28T03:42:00;99847.44;;;11.23;99.95
65151;BME280;51918;51.856;0.150;2023-04-28T03:47:01;99852.66;;;11.29;99.49
65151;BME280;51918;51.856;0.150;2023-04-28T03:52:02;99840.03;;;11.35;98.92
65151;BME280;51918;51.856;0.150;2023-04-28T03:57:04;99842.06;;;11.39;98.74
65151;BME280;51918;51.856;0.150;2023-04-28T04:02:04;99845.84;;;11.43;98.68
65151;BME280;51918;51.856;0.150;2023-04-28T04:07:05;99830.78;;;11.40;98.87
65151;BME280;51918;51.856;0.150;2023-04-28T04:12:07;99837.00;;;11.31;99.94
65151;BME280;51918;51.856;0.150;2023-04-28T04:17:08;99844.19;;;11.36;100.00
65151;BME280;51918;51.856;0.150;2023-04-28T04:22:08;99845.41;;;11.40;100.00
65151;BME280;51918;51.856;0.150;2023-04-28T04:27:10;99855.78;;;11.46;100.00
65151;BME280;51918;51.856;0.150;2023-04-28T04:32:11;99855.25;;;11.51;99.79
65151;BME280;51918;51.856;0.150;2023-04-28T04:37:11;99864.78;;;11.57;99.57
65151;BME280;51918;51.856;0.150;2023-04-28T04:42:13;99866.63;;;11.63;99.96
65151;BME280;51918;51.856;0.150;2023-04-28T04:47:14;99859.97;;;11.69;100.00
65151;BME280;51918;51.856;0.150;2023-04-28T04:52:15;99866.97;;;11.75;99.64
65151;BME280;51918;51.856;0.150;2023-04-28T04:57:17;99862.03;;;11.80;100.00
65151;BME280;51918;51.856;0.150;2023-04-28T05:02:17;99867.63;;;11.84;100.00
65151;BME280;51918;51.856;0.150;2023-04-28T05:07:18;99861.91;;;11.88;100.00
65151;BME280;51918;51.856;0.150;2023-04-28T05:12:20;99861.94;;;11.95;100.00
65151;BME280;51918;51.856;0.150;2023-04-28T05:17:21;99874.47;;;11.98;100.00
65151;BME280;51918;51.856;0.150;2023-04-28T05:22:21;99866.59;;;12.06;100.00
65151;BME280;51918;51.856;0.150;2023-04-28T05:27:23;99884.94;;;12.18;100.00
65151;BME280;51918;51.856;0.150;2023-04-28T05:32:24;99876.69;;;12.29;100.00
65151;BME280;51918;51.856;0.150;2023-04-28T05:37:24;99893.97;;;12.36;100.00
65151;BME280;51918;51.856;0.150;2023-04-28T05:42:27;99886.88;;;12.44;100.00
65151;BME280;51918;51.856;0.150;2023-04-28T05:47:27;99890.75;;;12.55;100.00
65151;BME280;51918;51.856;0.150;2023-04-28T05:52:28;99901.91;;;12.62;100.00
65151;BME280;51918;51.856;0.150;2023-04-28T05:57:30;99911.66;;;12.67;100.00
65151;BME280;51918;51.856;0.150;2023-04-28T06:02:31;99914.06;;;12.75;100.00
65151;BME280;51918;51.856;0.150;2023-04-28T06:07:31;99909.38;;;12.85;100.00
65151;BME280;51918;51.856;0.150;2023-04-28T06:12:33;99910.59;;;12.96;100.00
65151;BME280;51918;51.856;0.150;2023-04-28T06:17:34;99910.88;;;13.14;100.00
65151;BME280;51918;51.856;0.150;2023-04-28T06:22:35;99919.28;;;13.30;100.00
65151;BME280;51918;51.856;0.150;2023-04-28T06:27:37;99911.00;;;13.61;100.00
65151;BME280;51918;51.856;0.150;2023-04-28T06:32:38;99907.28;;;13.97;100.00
65151;BME280;51918;51.856;0.150;2023-04-28T06:37:38;99921.63;;;14.26;100.00
65151;BME280;51918;51.856;0.150;2023-04-28T06:42:40;99924.34;;;14.45;100.00
65151;BME280;51918;51.856;0.150;2023-04-28T06:47:41;99926.94;;;14.45;100.00
65151;BME280;51918;51.856;0.150;2023-04-28T06:52:42;99932.34;;;14.50;100.00
65151;BME280;51918;51.856;0.150;2023-04-28T06:57:44;99934.50;;;14.53;100.00
65151;BME280;51918;51.856;0.150;2023-04-28T07:02:45;99950.22;;;14.58;100.00
65151;BME280;51918;51.856;0.150;2023-04-28T07:07:46;99951.00;;;14.52;100.00
65151;BME280;51918;51.856;0.150;2023-04-28T07:12:48;99945.66;;;14.47;100.00
65151;BME280;51918;51.856;0.150;2023-04-28T07:17:49;99954.81;;;14.49;100.00
65151;BME280;51918;51.856;0.150;2023-04-28T07:22:50;99956.44;;;14.44;100.00
65151;BME280;51918;51.856;0.150;2023-04-28T07:27:52;99960.81;;;14.50;100.00
65151;BME280;51918;51.856;0.150;2023-04-28T07:32:52;99969.94;;;14.59;100.00
65151;BME280;51918;51.856;0.150;2023-04-28T07:37:53;99969.50;;;14.75;100.00
65151;BME280;51918;51.856;0.150;2023-04-28T07:42:56;99968.31;;;14.91;100.00
65151;BME280;51918;51.856;0.150;2023-04-28T07:47:56;99977.66;;;14.92;99.71
65151;BME280;51918;51.856;0.150;2023-04-28T07:52:57;99976.88;;;14.92;99.38
65151;BME280;51918;51.856;0.150;2023-04-28T07:57:59;99981.03;;;14.99;98.64
65151;BME280;51918;51.856;0.150;2023-04-28T08:03:00;99990.00;;;14.97;97.75
65151;BME280;51918;51.856;0.150;2023-04-28T08:08:01;99998.56;;;15.04;97.12
65151;BME280;51918;51.856;0.150;2023-04-28T08:13:03;100008.53;;;14.94;97.33
65151;BME280;51918;51.856;0.150;2023-04-28T08:18:04;100014.69;;;15.13;96.88
65151;BME280;51918;51.856;0.150;2023-04-28T08:23:04;100008.44;;;15.20;96.33
65151;BME280;51918;51.856;0.150;2023-04-28T08:28:06;100001.69;;;15.19;95.34
65151;BME280;51918;51.856;0.150;2023-04-28T08:33:07;100010.66;;;15.24;94.68
65151;BME280;51918;51.856;0.150;2023-04-28T08:38:08;100014.78;;;15.38;94.32
65151;BME280;51918;51.856;0.150;2023-04-28T08:43:10;100024.50;;;15.49;94.15
65151;BME280;51918;51.856;0.150;2023-04-28T08:48:17;100024.88;;;15.53;93.85
65151;BME280;51918;51.856;0.150;2023-04-28T08:53:21;100018.09;;;15.58;93.86
65151;BME280;51918;51.856;0.150;2023-04-28T08:58:25;100028.91;;;15.49;94.13
65151;BME280;51918;51.856;0.150;2023-04-28T09:03:26;100039.72;;;15.77;93.62
65151;BME280;51918;51.856;0.150;2023-04-28T09:08:26;100035.44;;;16.03;92.09
65151;BME280;51918;51.856;0.150;2023-04-28T09:13:29;100035.78;;;16.13;91.46
65151;BME280;51918;51.856;0.150;2023-04-28T09:18:29;100039.00;;;16.34;89.25
65151;BME280;51918;51.856;0.150;2023-04-28T09:23:30;100046.38;;;16.37;87.00
65151;BME280;51918;51.856;0.150;2023-04-28T09:28:34;100049.06;;;16.49;86.64
65151;BME280;51918;51.856;0.150;2023-04-28T09:33:35;100046.47;;;16.49;86.03
65151;BME280;51918;51.856;0.150;2023-04-28T09:38:42;100053.69;;;16.47;85.19
65151;BME280;51918;51.856;0.150;2023-04-28T09:43:44;100066.34;;;16.61;86.37
65151;BME280;51918;51.856;0.150;2023-04-28T09:48:45;100067.25;;;17.17;86.16
65151;BME280;51918;51.856;0.150;2023-04-28T09:53:46;100073.75;;;17.27;82.99
65151;BME280;51918;51.856;0.150;2023-04-28T09:58:49;100077.22;;;17.20;81.37
65151;BME280;51918;51.856;0.150;2023-04-28T10:03:52;100096.25;;;17.14;80.98
65151;BME280;51918;51.856;0.150;2023-04-28T10:08:52;100090.88;;;17.16;80.87
65151;BME280;51918;51.856;0.150;2023-04-28T10:13:56;100097.66;;;17.35;80.14
65151;BME280;51918;51.856;0.150;2023-04-28T10:18:56;100111.91;;;17.51;78.07
65151;BME280;51918;51.856;0.150;2023-04-28T10:24:02;100111.41;;;17.79;76.32
65151;BME280;51918;51.856;0.150;2023-04-28T10:29:08;100116.00;;;17.59;75.96
65151;BME280;51918;51.856;0.150;2023-04-28T10:34:20;100125.41;;;17.60;76.59
65151;BME280;51918;51.856;0.150;2023-04-28T10:39:21;100143.53;;;17.67;77.16
65151;BME280;51918;51.856;0.150;2023-04-28T10:44:41;100139.91;;;17.68;78.16
65151;BME280;51918;51.856;0.150;2023-04-28T10:50:07;100144.84;;;17.76;78.73
65151;BME280;51918;51.856;0.150;2023-04-28T10:55:27;100143.72;;;18.02;77.37
65151;BME280;51918;51.856;0.150;2023-04-28T11:00:30;100141.50;;;18.05;75.14
65151;BME280;51918;51.856;0.150;2023-04-28T11:05:31;100147.09;;;18.21;73.45
65151;BME280;51918;51.856;0.150;2023-04-28T11:16:08;100156.63;;;18.27;70.09
65151;BME280;51918;51.856;0.150;2023-04-28T11:21:10;100167.72;;;18.04;70.18
65151;BME280;51918;51.856;0.150;2023-04-28T11:26:11;100160.53;;;17.88;70.33
65151;BME280;51918;51.856;0.150;2023-04-28T11:31:13;100163.16;;;17.88;71.21
65151;BME280;51918;51.856;0.150;2023-04-28T11:36:25;100166.25;;;17.78;72.14
65151;BME280;51918;51.856;0.150;2023-04-28T11:41:26;100174.66;;;18.10;73.83
65151;BME280;51918;51.856;0.150;2023-04-28T11:46:28;100177.25;;;18.59;71.20
65151;BME280;51918;51.856;0.150;2023-04-28T11:51:36;100175.63;;;19.47;71.60
65151;BME280;51918;51.856;0.150;2023-04-28T11:56:38;100175.75;;;19.93;65.33
65151;BME280;51918;51.856;0.150;2023-04-28T12:01:48;100171.81;;;19.90;63.00
65151;BME280;51918;51.856;0.150;2023-04-28T12:06:57;100190.44;;;19.70;62.29
65151;BME280;51918;51.856;0.150;2023-04-28T12:12:01;100195.78;;;19.63;62.84
65151;BME280;51918;51.856;0.150;2023-04-28T12:17:03;100200.34;;;19.56;62.52
65151;BME280;51918;51.856;0.150;2023-04-28T12:22:04;100216.53;;;19.23;62.70
65151;BME280;51918;51.856;0.150;2023-04-28T12:27:16;100220.47;;;18.78;62.82
65151;BME280;51918;51.856;0.150;2023-04-28T12:32:19;100227.72;;;18.88;65.47
65151;BME280;51918;51.856;0.150;2023-04-28T12:37:19;100233.44;;;19.20;64.59
65151;BME280;51918;51.856;0.150;2023-04-28T12:42:20;100240.16;;;19.63;63.72
65151;BME280;51918;51.856;0.150;2023-04-28T12:47:22;100238.81;;;20.13;62.03
65151;BME280;51918;51.856;0.150;2023-04-28T12:52:22;100249.50;;;20.52;58.46
65151;BME280;51918;51.856;0.150;2023-04-28T12:57:23;100255.31;;;20.71;57.88
65151;BME280;51918;51.856;0.150;2023-04-28T13:02:25;100276.84;;;20.61;57.37
65151;BME280;51918;51.856;0.150;2023-04-28T13:07:26;100282.66;;;20.97;56.53
65151;BME280;51918;51.856;0.150;2023-04-28T13:12:27;100290.66;;;20.90;55.34
65151;BME280;51918;51.856;0.150;2023-04-28T13:17:29;100292.56;;;21.41;53.43
65151;BME280;51918;51.856;0.150;2023-04-28T13:22:29;100285.38;;;22.31;52.95
65151;BME280;51918;51.856;0.150;2023-04-28T13:27:30;100281.16;;;22.79;48.43
65151;BME280;51918;51.856;0.150;2023-04-28T13:32:32;100300.28;;;22.80;47.98
65151;BME280;51918;51.856;0.150;2023-04-28T13:37:32;100309.47;;;23.42;47.40
65151;BME280;51918;51.856;0.150;2023-04-28T13:42:33;100314.72;;;23.79;45.27
65151;BME280;51918;51.856;0.150;2023-04-28T13:47:35;100320.41;;;24.19;45.02
65151;BME280;51918;51.856;0.150;2023-04-28T13:52:35;100327.97;;;24.05;44.22
65151;BME280;51918;51.856;0.150;2023-04-28T13:57:36;100332.50;;;23.72;41.96
65151;BME280;51918;51.856;0.150;2023-04-28T14:02:38;100336.97;;;23.71;42.28
65151;BME280;51918;51.856;0.150;2023-04-28T14:07:39;100337.59;;;23.84;43.12
65151;BME280;51918;51.856;0.150;2023-04-28T14:12:40;100336.22;;;23.81;42.46
65151;BME280;51918;51.856;0.150;2023-04-28T14:17:42;100340.56;;;24.03;41.02
65151;BME280;51918;51.856;0.150;2023-04-28T14:22:42;100350.97;;;23.82;41.47
65151;BME280;51918;51.856;0.150;2023-04-28T14:27:43;100348.28;;;23.72;42.98
65151;BME280;51918;51.856;0.150;2023-04-28T14:32:45;100352.19;;;23.69;41.22
65151;BME280;51918;51.856;0.150;2023-04-28T14:37:46;100368.53;;;23.39;40.45
65151;BME280;51918;51.856;0.150;2023-04-28T14:42:46;100361.13;;;23.04;40.47
65151;BME280;51918;51.856;0.150;2023-04-28T14:52:49;100368.38;;;22.25;41.44
65151;BME280;51918;51.856;0.150;2023-04-28T14:57:50;100365.59;;;22.15;41.86
65151;BME280;51918;51.856;0.150;2023-04-28T15:02:52;100375.91;;;22.22;42.22
65151;BME280;51918;51.856;0.150;2023-04-28T15:07:52;100371.69;;;21.99;42.18
65151;BME280;51918;51.856;0.150;2023-04-28T15:12:53;100383.50;;;22.01;42.49
65151;BME280;51918;51.856;0.150;2023-04-28T15:17:55;100379.16;;;21.73;42.79
65151;BME280;51918;51.856;0.150;2023-04-28T15:22:56;100362.09;;;21.37;42.42
65151;BME280;51918;51.856;0.150;2023-04-28T15:27:56;100382.25;;;20.79;41.98
65151;BME280;51918;51.856;0.150;2023-04-28T15:32:59;100383.97;;;20.73;43.22
65151;BME280;51918;51.856;0.150;2023-04-28T15:37:59;100376.53;;;20.53;43.87
65151;BME280;51918;51.856;0.150;2023-04-28T15:43:00;100388.03;;;20.05;44.49
65151;BME280;51918;51.856;0.150;2023-04-28T15:48:02;100388.59;;;19.95;45.26
65151;BME280;51918;51.856;0.150;2023-04-28T15:53:03;100379.50;;;19.98;46.50
65151;BME280;51918;51.856;0.150;2023-04-28T15:58:03;100382.13;;;20.09;46.03
65151;BME280;51918;51.856;0.150;2023-04-28T16:03:05;100385.44;;;20.28;46.16
65151;BME280;51918;51.856;0.150;2023-04-28T16:08:06;100402.56;;;20.13;45.79
65151;BME280;51918;51.856;0.150;2023-04-28T16:13:06;100407.31;;;20.04;45.84
65151;BME280;51918;51.856;0.150;2023-04-28T16:18:08;100413.78;;;20.01;46.24
65151;BME280;51918;51.856;0.150;2023-04-28T16:23:09;100414.25;;;19.86;46.77
65151;BME280;51918;51.856;0.150;2023-04-28T16:28:10;100407.44;;;19.85;47.15
65151;BME280;51918;51.856;0.150;2023-04-28T16:33:11;100424.75;;;19.68;47.26
65151;BME280;51918;51.856;0.150;2023-04-28T16:38:12;100442.69;;;19.64;46.77
65151;BME280;51918;51.856;0.150;2023-04-28T16:43:13;100438.09;;;19.48;46.92
65151;BME280;51918;51.856;0.150;2023-04-28T16:48:15;100449.31;;;19.18;46.61
65151;BME280;51918;51.856;0.150;2023-04-28T16:53:17;100456.28;;;19.06;47.54
65151;BME280;51918;51.856;0.150;2023-04-28T16:58:18;100473.31;;;18.90;47.85
65151;BME280;51918;51.856;0.150;2023-04-28T17:03:20;100484.09;;;18.75;48.27
65151;BME280;51918;51.856;0.150;2023-04-28T17:08:21;100490.59;;;18.66;48.04
65151;BME280;51918;51.856;0.150;2023-04-28T17:13:21;100493.00;;;18.42;48.25
65151;BME280;51918;51.856;0.150;2023-04-28T17:18:24;100502.56;;;18.49;48.51
65151;BME280;51918;51.856;0.150;2023-04-28T17:23:24;100519.00;;;18.49;49.26
65151;BME280;51918;51.856;0.150;2023-04-28T17:28:25;100517.22;;;18.43;50.57
65151;BME280;51918;51.856;0.150;2023-04-28T17:33:27;100518.91;;;18.37;51.12
65151;BME280;51918;51.856;0.150;2023-04-28T17:38:28;100530.22;;;18.24;51.23
65151;BME280;51918;51.856;0.150;2023-04-28T17:43:29;100543.34;;;18.04;51.34
65151;BME280;51918;51.856;0.150;2023-04-28T17:48:31;100558.91;;;17.86;51.55
65151;BME280;51918;51.856;0.150;2023-04-28T17:53:31;100562.56;;;17.65;51.96
65151;BME280;51918;51.856;0.150;2023-04-28T17:58:32;100550.84;;;17.49;52.58
65151;BME280;51918;51.856;0.150;2023-04-28T18:03:36;100553.53;;;17.22;52.47
65151;BME280;51918;51.856;0.150;2023-04-28T18:08:36;100559.78;;;17.08;53.21
65151;BME280;51918;51.856;0.150;2023-04-28T18:13:37;100566.38;;;16.84;53.72
65151;BME280;51918;51.856;0.150;2023-04-28T18:18:39;100578.97;;;16.60;53.65
65151;BME280;51918;51.856;0.150;2023-04-28T18:23:40;100584.75;;;16.36;53.85
65151;BME280;51918;51.856;0.150;2023-04-28T18:28:40;100598.06;;;16.13;54.08
65151;BME280;51918;51.856;0.150;2023-04-28T18:33:43;100597.25;;;15.92;53.73
65151;BME280;51918;51.856;0.150;2023-04-28T18:38:44;100603.72;;;15.68;54.16
65151;BME280;51918;51.856;0.150;2023-04-28T18:43:45;100622.13;;;15.45;54.81
65151;BME280;51918;51.856;0.150;2023-04-28T18:48:47;100634.97;;;15.25;55.44
65151;BME280;51918;51.856;0.150;2023-04-28T18:53:47;100636.81;;;15.03;56.12
65151;BME280;51918;51.856;0.150;2023-04-28T18:58:48;100638.06;;;14.86;56.97
65151;BME280;51918;51.856;0.150;2023-04-28T19:03:50;100646.06;;;14.69;57.47
65151;BME280;51918;51.856;0.150;2023-04-28T19:08:51;100657.72;;;14.58;57.70
65151;BME280;51918;51.856;0.150;2023-04-28T19:13:51;100671.06;;;14.41;58.49
65151;BME280;51918;51.856;0.150;2023-04-28T19:18:53;100685.22;;;14.23;59.16
65151;BME280;51918;51.856;0.150;2023-04-28T19:23:54;100682.22;;;14.05;59.22
65151;BME280;51918;51.856;0.150;2023-04-28T19:28:54;100692.50;;;13.83;60.13
65151;BME280;51918;51.856;0.150;2023-04-28T19:33:57;100694.66;;;13.56;60.58
65151;BME280;51918;51.856;0.150;2023-04-28T19:38:57;100694.84;;;13.40;61.03
65151;BME280;51918;51.856;0.150;2023-04-28T19:43:58;100706.44;;;13.21;61.69
65151;BME280;51918;51.856;0.150;2023-04-28T19:49:00;100705.94;;;13.03;62.30
65151;BME280;51918;51.856;0.150;2023-04-28T19:54:01;100714.16;;;12.83;63.75
65151;BME280;51918;51.856;0.150;2023-04-28T19:59:01;100719.28;;;12.60;64.24
65151;BME280;51918;51.856;0.150;2023-04-28T20:04:04;100738.03;;;12.46;64.74
65151;BME280;51918;51.856;0.150;2023-04-28T20:09:04;100749.06;;;12.31;65.40
65151;BME280;51918;51.856;0.150;2023-04-28T20:14:05;100749.09;;;12.15;65.55
65151;BME280;51918;51.856;0.150;2023-04-28T20:19:07;100748.19;;;12.00;65.88
65151;BME280;51918;51.856;0.150;2023-04-28T20:24:08;100750.81;;;11.83;66.36
65151;BME280;51918;51.856;0.150;2023-04-28T20:29:08;100749.53;;;11.71;67.26
65151;BME280;51918;51.856;0.150;2023-04-28T20:34:11;100764.34;;;11.61;67.86
65151;BME280;51918;51.856;0.150;2023-04-28T20:39:11;100765.00;;;11.46;68.22
65151;BME280;51918;51.856;0.150;2023-04-28T20:44:12;100769.19;;;11.31;68.74
65151;BME280;51918;51.856;0.150;2023-04-28T20:49:14;100772.03;;;11.20;70.01
65151;BME280;51918;51.856;0.150;2023-04-28T20:54:15;100783.78;;;11.14;70.45
65151;BME280;51918;51.856;0.150;2023-04-28T20:59:15;100794.41;;;11.11;71.52
65151;BME280;51918;51.856;0.150;2023-04-28T21:04:18;100798.75;;;11.10;71.85
65151;BME280;51918;51.856;0.150;2023-04-28T21:09:18;100796.47;;;11.07;72.36
65151;BME280;51918;51.856;0.150;2023-04-28T21:14:19;100805.03;;;11.08;72.77
65151;BME280;51918;51.856;0.150;2023-04-28T21:19:21;100812.28;;;11.13;72.58
65151;BME280;51918;51.856;0.150;2023-04-28T21:24:22;100821.28;;;11.17;72.50
65151;BME280;51918;51.856;0.150;2023-04-28T21:29:23;100828.41;;;11.23;72.39
65151;BME280;51918;51.856;0.150;2023-04-28T21:34:25;100827.09;;;11.27;72.27
65151;BME280;51918;51.856;0.150;2023-04-28T21:39:27;100824.25;;;11.30;71.51
65151;BME280;51918;51.856;0.150;2023-04-28T21:44:27;100823.25;;;11.31;70.35
65151;BME280;51918;51.856;0.150;2023-04-28T21:49:29;100823.13;;;11.32;69.64
65151;BME280;51918;51.856;0.150;2023-04-28T21:54:30;100833.41;;;11.32;69.48
65151;BME280;51918;51.856;0.150;2023-04-28T21:59:31;100832.25;;;11.27;70.03
65151;BME280;51918;51.856;0.150;2023-04-28T22:04:33;100839.31;;;11.25;70.36
65151;BME280;51918;51.856;0.150;2023-04-28T22:09:34;100842.06;;;11.23;71.19
65151;BME280;51918;51.856;0.150;2023-04-28T22:14:35;100846.44;;;11.31;71.38
65151;BME280;51918;51.856;0.150;2023-04-28T22:19:37;100847.59;;;11.37;70.84
65151;BME280;51918;51.856;0.150;2023-04-28T22:24:38;100862.91;;;11.38;71.01
65151;BME280;51918;51.856;0.150;2023-04-28T22:29:39;100859.34;;;11.39;70.95
65151;BME280;51918;51.856;0.150;2023-04-28T22:34:41;100861.94;;;11.47;70.94
65151;BME280;51918;51.856;0.150;2023-04-28T22:39:42;100860.97;;;11.48;70.61
65151;BME280;51918;51.856;0.150;2023-04-28T22:44:43;100867.25;;;11.54;70.82
65151;BME280;51918;51.856;0.150;2023-04-28T22:49:45;100872.75;;;11.51;70.47
65151;BME280;51918;51.856;0.150;2023-04-28T22:54:45;100878.53;;;11.53;70.68
65151;BME280;51918;51.856;0.150;2023-04-28T22:59:46;100873.53;;;11.51;70.71
65151;BME280;51918;51.856;0.150;2023-04-28T23:04:48;100868.03;;;11.46;70.70
65151;BME280;51918;51.856;0.150;2023-04-28T23:09:49;100876.44;;;11.40;70.96
65151;BME280;51918;51.856;0.150;2023-04-28T23:14:49;100873.50;;;11.35;70.84
65151;BME280;51918;51.856;0.150;2023-04-28T23:19:52;100878.00;;;11.33;71.10
65151;BME280;51918;51.856;0.150;2023-04-28T23:24:52;100890.06;;;11.32;71.12
65151;BME280;51918;51.856;0.150;2023-04-28T23:29:53;100888.31;;;11.33;71.41
65151;BME280;51918;51.856;0.150;2023-04-28T23:34:55;100889.28;;;11.32;71.32
65151;BME280;51918;51.856;0.150;2023-04-28T23:39:56;100885.06;;;11.31;71.90
65151;BME280;51918;51.856;0.150;2023-04-28T23:44:56;100893.09;;;11.28;71.73
65151;BME280;51918;51.856;0.150;2023-04-28T23:49:59;100893.38;;;11.25;71.79
65151;BME280;51918;51.856;0.150;2023-04-28T23:54:59;100886.66;;;11.24;71.85
